createdAt,value
2019-04-28T00:00:34.258Z,101018.56
2019-04-28T00:03:03.840Z,101028.59
2019-04-28T00:05:33.396Z,101023.89
2019-04-28T00:08:02.917Z,101030.77
2019-04-28T00:10:32.576Z,101020.89
2019-04-28T00:13:02.084Z,101024.04
2019-04-28T00:15:32.284Z,101030.16
2019-04-28T00:18:04.125Z,101020.70
2019-04-28T00:20:56.686Z,101022.48
2019-04-28T00:23:31.822Z,101024.25
2019-04-28T00:26:12.138Z,101022.12
2019-04-28T00:28:41.772Z,101030.45
2019-04-28T00:31:11.401Z,101030.98
2019-04-28T00:33:43.393Z,101027.52
2019-04-28T00:36:12.360Z,101030.12
2019-04-28T00:38:41.859Z,101033.70
2019-04-28T00:41:12.368Z,101037.17
2019-04-28T00:43:41.892Z,101038.44
2019-04-28T00:46:14.221Z,101038.94
2019-04-28T00:48:43.642Z,101044.19
2019-04-28T00:51:13.155Z,101048.06
2019-04-28T00:53:42.577Z,101046.86
2019-04-28T00:56:12.176Z,101047.77
2019-04-28T00:58:41.830Z,101048.23
2019-04-28T01:01:19.065Z,101049.14
2019-04-28T01:03:48.483Z,101046.56
2019-04-28T01:06:18.087Z,101051.38
2019-04-28T01:08:48.746Z,101047.53
2019-04-28T01:11:18.339Z,101046.17
2019-04-28T01:13:47.763Z,101050.08
2019-04-28T01:16:35.483Z,101051.38
2019-04-28T01:19:06.687Z,101052.38
2019-04-28T01:21:54.139Z,101053.21
2019-04-28T01:24:25.625Z,101054.08
2019-04-28T01:26:56.338Z,101050.17
2019-04-28T01:29:25.801Z,101051.98
2019-04-28T01:32:15.358Z,101052.34
2019-04-28T01:34:44.869Z,101053.21
2019-04-28T01:37:14.290Z,101058.42
2019-04-28T01:39:43.812Z,101055.35
2019-04-28T01:42:13.311Z,101057.98
2019-04-28T01:44:42.760Z,101057.98
2019-04-28T01:47:12.199Z,101060.06
2019-04-28T01:49:41.644Z,101068.31
2019-04-28T01:52:11.300Z,101069.61
2019-04-28T01:54:40.818Z,101073.05
2019-04-28T01:57:10.277Z,101075.69
2019-04-28T01:59:40.451Z,101077.80
2019-04-28T02:02:10.386Z,101081.27
2019-04-28T02:04:40.461Z,101079.97
2019-04-28T02:07:11.086Z,101078.20
2019-04-28T02:09:40.873Z,101085.55
2019-04-28T02:12:10.670Z,101087.25
2019-04-28T02:14:40.549Z,101091.16
2019-04-28T02:17:10.602Z,101089.42
2019-04-28T02:19:40.946Z,101087.72
2019-04-28T02:22:21.401Z,101088.58
2019-04-28T02:24:51.940Z,101089.08
2019-04-28T02:27:21.904Z,101093.86
2019-04-28T02:29:51.870Z,101092.52
2019-04-28T02:32:24.343Z,101103.34
2019-04-28T02:34:52.432Z,101104.19
2019-04-28T02:37:21.848Z,101107.69
2019-04-28T02:39:51.307Z,101104.19
2019-04-28T02:42:21.031Z,101105.48
2019-04-28T02:44:51.079Z,101105.95
2019-04-28T02:47:21.900Z,101113.30
2019-04-28T02:49:57.129Z,101111.59
2019-04-28T02:52:31.085Z,101118.08
2019-04-28T02:55:03.346Z,101110.70
2019-04-28T02:57:31.984Z,101115.54
2019-04-28T03:00:01.440Z,101112.90
2019-04-28T03:02:35.670Z,101114.67
2019-04-28T03:05:06.849Z,101116.38
2019-04-28T03:07:36.425Z,101117.30
2019-04-28T03:10:06.014Z,101118.73
2019-04-28T03:12:35.522Z,101127.05
2019-04-28T03:15:06.808Z,101126.23
2019-04-28T03:17:36.433Z,101116.28
2019-04-28T03:20:06.827Z,101121.00
2019-04-28T03:22:36.381Z,101119.70
2019-04-28T03:25:11.011Z,101120.63
2019-04-28T03:27:57.025Z,101123.33
2019-04-28T03:30:44.410Z,101125.98
2019-04-28T03:33:18.798Z,101121.64
2019-04-28T03:35:46.742Z,101123.70
2019-04-28T03:38:16.161Z,101124.59
2019-04-28T03:40:45.603Z,101128.97
2019-04-28T03:43:15.026Z,101127.20
2019-04-28T03:45:55.145Z,101131.91
2019-04-28T03:48:24.567Z,101143.69
2019-04-28T03:50:54.087Z,101137.30
2019-04-28T03:53:23.512Z,101141.61
2019-04-28T03:55:53.039Z,101137.23
2019-04-28T03:58:24.233Z,101141.52
2019-04-28T04:00:54.118Z,101149.67
2019-04-28T04:03:23.576Z,101152.41
2019-04-28T04:05:53.005Z,101152.37
2019-04-28T04:08:22.441Z,101152.44
2019-04-28T04:11:10.890Z,101157.17
2019-04-28T04:13:45.193Z,101154.63
2019-04-28T04:16:25.138Z,101160.42
2019-04-28T04:18:56.191Z,101156.08
2019-04-28T04:21:25.775Z,101163.89
2019-04-28T04:23:55.202Z,101162.23
2019-04-28T04:26:24.793Z,101166.66
2019-04-28T04:28:54.238Z,101161.42
2019-04-28T04:31:23.667Z,101173.52
2019-04-28T04:33:53.110Z,101173.00
2019-04-28T04:36:23.602Z,101170.77
2019-04-28T04:38:53.065Z,101178.07
2019-04-28T04:41:22.484Z,101180.64
2019-04-28T04:43:51.931Z,101181.40
2019-04-28T04:46:23.109Z,101179.11
2019-04-28T04:48:53.088Z,101187.70
2019-04-28T04:51:22.546Z,101199.86
2019-04-28T04:53:52.133Z,101196.42
2019-04-28T04:56:21.843Z,101205.08
2019-04-28T04:58:51.503Z,101205.39
2019-04-28T05:01:34.791Z,101204.95
2019-04-28T05:04:06.013Z,101209.70
2019-04-28T05:06:41.585Z,101205.36
2019-04-28T05:09:11.538Z,101210.14
2019-04-28T05:11:41.089Z,101209.82
2019-04-28T05:14:12.071Z,101211.12
2019-04-28T05:16:41.725Z,101222.84
2019-04-28T05:19:11.241Z,101215.44
2019-04-28T05:21:40.666Z,101225.48
2019-04-28T05:24:20.829Z,101233.73
2019-04-28T05:26:51.590Z,101233.67
2019-04-28T05:29:26.596Z,101234.05
2019-04-28T05:31:54.726Z,101233.09
2019-04-28T05:34:24.199Z,101231.27
2019-04-28T05:36:54.026Z,101239.46
2019-04-28T05:39:23.515Z,101241.23
2019-04-28T05:41:52.963Z,101242.91
2019-04-28T05:44:22.423Z,101252.43
2019-04-28T05:46:51.858Z,101252.03
2019-04-28T05:49:39.739Z,101251.51
2019-04-28T05:52:29.906Z,101250.64
2019-04-28T05:55:03.890Z,101255.85
2019-04-28T05:57:34.973Z,101258.05
2019-04-28T06:00:10.818Z,101260.10
2019-04-28T06:02:55.913Z,101267.00
2019-04-28T06:05:20.031Z,101266.01
2019-04-28T06:07:57.174Z,101272.15
2019-04-28T06:10:26.698Z,101276.44
2019-04-28T06:12:56.120Z,101271.09
2019-04-28T06:15:25.675Z,101269.27
2019-04-28T06:17:55.288Z,101275.38
2019-04-28T06:20:25.000Z,101272.84
2019-04-28T06:22:54.520Z,101271.56
2019-04-28T06:25:23.961Z,101272.46
2019-04-28T06:27:54.474Z,101279.82
2019-04-28T06:30:23.956Z,101276.69
2019-04-28T06:32:53.402Z,101287.48
2019-04-28T06:35:23.076Z,101290.91
2019-04-28T06:37:52.510Z,101289.10
2019-04-28T06:40:22.060Z,101285.56
2019-04-28T06:42:51.477Z,101292.42
2019-04-28T06:45:23.771Z,101288.84
2019-04-28T06:47:53.208Z,101294.94
2019-04-28T06:50:22.648Z,101306.17
2019-04-28T06:52:52.110Z,101308.62
2019-04-28T06:55:21.550Z,101309.42
2019-04-28T06:57:50.990Z,101308.92
2019-04-28T07:00:20.524Z,101309.59
2019-04-28T07:02:49.956Z,101307.72
2019-04-28T07:05:19.493Z,101317.66
2019-04-28T07:07:49.023Z,101321.87
2019-04-28T07:10:18.497Z,101320.12
2019-04-28T07:12:47.976Z,101325.02
2019-04-28T07:15:17.404Z,101323.24
2019-04-28T07:17:46.865Z,101329.73
2019-04-28T07:20:23.890Z,101332.21
2019-04-28T07:22:53.448Z,101330.17
2019-04-28T07:25:22.907Z,101336.66
2019-04-28T07:27:52.370Z,101329.99
2019-04-28T07:30:21.931Z,101334.66
2019-04-28T07:32:53.460Z,101332.45
2019-04-28T07:35:22.638Z,101338.87
2019-04-28T07:37:52.139Z,101341.95
2019-04-28T07:40:21.585Z,101340.91
2019-04-28T07:42:51.033Z,101343.30
2019-04-28T07:45:22.373Z,101355.17
2019-04-28T07:47:53.517Z,101352.16
2019-04-28T07:50:23.080Z,101356.45
2019-04-28T07:53:00.178Z,101355.86
2019-04-28T07:55:29.599Z,101355.23
2019-04-28T07:57:59.441Z,101350.62
2019-04-28T08:00:30.587Z,101359.77
2019-04-28T08:03:00.464Z,101360.75
2019-04-28T08:05:29.947Z,101369.24
2019-04-28T08:07:59.413Z,101366.70
2019-04-28T08:10:31.461Z,101369.63
2019-04-28T08:13:00.907Z,101372.52
2019-04-28T08:15:31.489Z,101370.09
2019-04-28T08:18:00.988Z,101370.09
2019-04-28T08:20:30.436Z,101366.55
2019-04-28T08:22:59.882Z,101366.86
2019-04-28T08:25:29.307Z,101379.72
2019-04-28T08:27:58.827Z,101383.59
2019-04-28T08:30:28.357Z,101387.48
2019-04-28T08:32:59.446Z,101386.14
2019-04-28T08:35:28.861Z,101384.33
2019-04-28T08:37:58.306Z,101385.64
2019-04-28T08:40:28.986Z,101387.89
2019-04-28T08:42:58.436Z,101387.55
2019-04-28T08:45:27.850Z,101382.70
2019-04-28T08:47:58.108Z,101386.34
2019-04-28T08:50:30.321Z,101394.67
2019-04-28T08:53:00.842Z,101393.11
2019-04-28T08:55:30.259Z,101391.79
2019-04-28T08:57:59.690Z,101393.05
2019-04-28T09:00:29.172Z,101397.95
2019-04-28T09:02:58.630Z,101396.90
2019-04-28T09:05:28.064Z,101403.45
2019-04-28T09:07:57.496Z,101398.25
2019-04-28T09:10:27.000Z,101398.77
2019-04-28T09:12:56.987Z,101399.45
2019-04-28T09:15:26.382Z,101406.30
2019-04-28T09:17:55.820Z,101408.70
2019-04-28T09:20:25.343Z,101412.70
2019-04-28T09:22:54.821Z,101419.80
2019-04-28T09:25:24.295Z,101420.08
2019-04-28T09:27:53.706Z,101419.14
2019-04-28T09:30:23.294Z,101426.86
2019-04-28T09:32:52.717Z,101435.84
2019-04-28T09:35:22.173Z,101437.97
2019-04-28T09:37:51.657Z,101432.97
2019-04-28T09:40:21.165Z,101438.23
2019-04-28T09:43:01.301Z,101431.72
2019-04-28T09:45:32.503Z,101434.39
2019-04-28T09:48:02.009Z,101442.91
2019-04-28T09:50:33.063Z,101436.64
2019-04-28T09:53:02.517Z,101434.50
2019-04-28T09:55:32.054Z,101430.37
2019-04-28T09:58:01.488Z,101435.41
2019-04-28T10:00:30.973Z,101437.25
2019-04-28T10:03:00.485Z,101442.37
2019-04-28T10:05:29.995Z,101451.50
2019-04-28T10:07:59.471Z,101447.34
2019-04-28T10:10:28.972Z,101445.67
2019-04-28T10:12:58.386Z,101447.39
2019-04-28T10:15:27.895Z,101448.01
2019-04-28T10:17:57.379Z,101445.92
2019-04-28T10:20:26.886Z,101449.41
2019-04-28T10:22:57.973Z,101443.08
2019-04-28T10:25:27.485Z,101438.48
2019-04-28T10:27:56.990Z,101438.67
2019-04-28T10:30:26.431Z,101439.56
2019-04-28T10:32:55.917Z,101432.77
2019-04-28T10:35:25.427Z,101435.01
2019-04-28T10:37:54.905Z,101436.16
2019-04-28T10:40:37.238Z,101441.22
2019-04-28T10:43:08.532Z,101436.82
2019-04-28T10:45:48.876Z,101445.30
2019-04-28T10:48:19.243Z,101441.52
2019-04-28T10:50:48.891Z,101439.43
2019-04-28T10:53:20.419Z,101445.28
2019-04-28T10:55:49.935Z,101446.70
2019-04-28T10:58:19.798Z,101445.97
2019-04-28T11:00:49.307Z,101450.15
2019-04-28T11:03:18.748Z,101444.30
2019-04-28T11:05:48.194Z,101447.58
2019-04-28T11:08:25.271Z,101449.43
2019-04-28T11:10:55.175Z,101450.72
2019-04-28T11:13:24.670Z,101447.44
2019-04-28T11:15:54.261Z,101451.13
2019-04-28T11:18:23.821Z,101454.34
2019-04-28T11:20:53.344Z,101458.57
2019-04-28T11:23:23.322Z,101460.48
2019-04-28T11:25:52.805Z,101468.82
2019-04-28T11:28:22.294Z,101467.72
2019-04-28T11:30:51.825Z,101466.23
2019-04-28T11:33:29.148Z,101467.44
2019-04-28T11:35:58.765Z,101464.48
2019-04-28T11:38:28.188Z,101475.45
2019-04-28T11:40:58.837Z,101474.37
2019-04-28T11:43:29.356Z,101473.98
2019-04-28T11:45:58.797Z,101478.60
2019-04-28T11:48:28.389Z,101485.98
2019-04-28T11:50:57.873Z,101486.24
2019-04-28T11:53:27.469Z,101490.44
2019-04-28T11:55:56.890Z,101488.64
2019-04-28T11:58:26.413Z,101486.16
2019-04-28T12:00:55.938Z,101489.22
2019-04-28T12:03:25.442Z,101488.44
2019-04-28T12:05:54.958Z,101484.30
2019-04-28T12:08:24.489Z,101489.53
2019-04-28T12:10:55.699Z,101491.27
2019-04-28T12:13:31.074Z,101496.86
2019-04-28T12:16:07.249Z,101495.91
2019-04-28T12:18:51.004Z,101494.91
2019-04-28T12:21:34.568Z,101503.76
2019-04-28T12:24:04.097Z,101499.81
2019-04-28T12:26:34.566Z,101496.09
2019-04-28T12:29:04.327Z,101503.11
2019-04-28T12:31:34.335Z,101495.66
2019-04-28T12:34:05.171Z,101501.86
2019-04-28T12:36:34.651Z,101501.69
2019-04-28T12:39:10.392Z,101499.14
2019-04-28T12:41:39.825Z,101502.76
2019-04-28T12:44:10.879Z,101498.95
2019-04-28T12:46:41.888Z,101501.27
2019-04-28T12:49:14.070Z,101499.67
2019-04-28T12:51:46.100Z,101499.48
2019-04-28T12:54:17.260Z,101500.88
2019-04-28T12:56:46.764Z,101501.81
2019-04-28T12:59:18.864Z,101498.14
2019-04-28T13:01:56.088Z,101501.66
2019-04-28T13:04:32.998Z,101500.98
2019-04-28T13:07:08.183Z,101504.91
2019-04-28T13:09:37.676Z,101500.59
2019-04-28T13:12:10.557Z,101505.98
2019-04-28T13:14:40.048Z,101504.98
2019-04-28T13:17:09.561Z,101495.84
2019-04-28T13:19:39.295Z,101506.16
2019-04-28T13:22:08.760Z,101511.99
2019-04-28T13:24:38.260Z,101508.52
2019-04-28T13:27:10.166Z,101513.42
2019-04-28T13:29:39.576Z,101515.37
2019-04-28T13:32:09.050Z,101512.84
2019-04-28T13:34:40.985Z,101515.10
2019-04-28T13:37:12.207Z,101516.76
2019-04-28T13:39:58.607Z,101516.15
2019-04-28T13:42:28.060Z,101506.98
2019-04-28T13:44:59.280Z,101507.97
2019-04-28T13:47:28.868Z,101508.32
2019-04-28T13:50:00.110Z,101511.14
2019-04-28T13:52:29.770Z,101512.36
2019-04-28T13:55:16.333Z,101515.84
2019-04-28T13:57:45.740Z,101512.36
2019-04-28T14:00:16.966Z,101514.95
2019-04-28T14:02:49.661Z,101521.48
2019-04-28T14:05:32.845Z,101516.08
2019-04-28T14:08:02.369Z,101514.38
2019-04-28T14:10:31.774Z,101514.83
2019-04-28T14:13:01.204Z,101512.70
2019-04-28T14:15:31.139Z,101519.91
2019-04-28T14:18:00.633Z,101517.04
2019-04-28T14:20:30.209Z,101517.88
2019-04-28T14:22:59.756Z,101512.48
2019-04-28T14:25:29.224Z,101518.49
2019-04-28T14:27:59.181Z,101516.11
2019-04-28T14:30:28.735Z,101517.41
2019-04-28T14:32:58.293Z,101520.77
2019-04-28T14:35:27.729Z,101522.06
2019-04-28T14:37:57.141Z,101530.08
2019-04-28T14:40:26.709Z,101527.84
2019-04-28T14:42:56.099Z,101529.48
2019-04-28T14:45:28.634Z,101522.66
2019-04-28T14:47:58.178Z,101528.27
2019-04-28T14:50:30.319Z,101528.14
2019-04-28T14:53:01.842Z,101529.34
2019-04-28T14:55:32.493Z,101528.41
2019-04-28T14:58:02.166Z,101528.09
2019-04-28T15:00:43.949Z,101529.24
2019-04-28T15:03:14.966Z,101536.56
2019-04-28T15:05:52.018Z,101531.94
2019-04-28T15:08:25.816Z,101546.19
2019-04-28T15:10:56.897Z,101541.93
2019-04-28T15:13:26.901Z,101538.66
2019-04-28T15:15:58.980Z,101540.00
2019-04-28T15:18:30.048Z,101541.16
2019-04-28T15:20:59.551Z,101550.66
2019-04-28T15:23:30.476Z,101548.30
2019-04-28T15:25:59.890Z,101556.80
2019-04-28T15:28:29.334Z,101559.00
2019-04-28T15:30:58.759Z,101557.89
2019-04-28T15:33:28.190Z,101556.08
2019-04-28T15:35:57.643Z,101558.99
2019-04-28T15:38:27.064Z,101554.86
2019-04-28T15:40:56.664Z,101555.42
2019-04-28T15:43:26.066Z,101561.64
2019-04-28T15:45:55.552Z,101563.62
2019-04-28T15:48:24.990Z,101560.00
2019-04-28T15:50:54.438Z,101561.10
2019-04-28T15:53:23.950Z,101560.00
2019-04-28T15:56:01.122Z,101558.92
2019-04-28T15:58:33.614Z,101563.69
2019-04-28T16:01:03.094Z,101558.20
2019-04-28T16:03:32.610Z,101560.78
2019-04-28T16:06:02.192Z,101562.23
2019-04-28T16:08:34.751Z,101561.22
2019-04-28T16:11:04.495Z,101565.09
2019-04-28T16:13:35.759Z,101563.20
2019-04-28T16:16:05.388Z,101560.24
2019-04-28T16:18:34.841Z,101564.33
2019-04-28T16:21:04.422Z,101562.86
2019-04-28T16:23:34.027Z,101570.00
2019-04-28T16:26:03.511Z,101558.98
2019-04-28T16:28:32.955Z,101565.05
2019-04-28T16:31:02.394Z,101568.84
2019-04-28T16:33:35.043Z,101572.33
2019-04-28T16:36:04.607Z,101572.73
2019-04-28T16:38:35.585Z,101574.42
2019-04-28T16:41:16.944Z,101577.87
2019-04-28T16:43:58.909Z,101577.73
2019-04-28T16:46:32.520Z,101581.27
2019-04-28T16:49:04.852Z,101578.43
2019-04-28T16:51:34.305Z,101583.44
2019-04-28T16:54:06.477Z,101586.06
2019-04-28T16:56:45.154Z,101581.51
2019-04-28T16:59:32.179Z,101584.62
2019-04-28T17:02:03.259Z,101590.65
2019-04-28T17:04:33.214Z,101589.52
2019-04-28T17:07:03.881Z,101592.23
2019-04-28T17:09:33.255Z,101586.76
2019-04-28T17:12:07.358Z,101597.52
2019-04-28T17:14:41.388Z,101586.30
2019-04-28T17:17:10.902Z,101595.11
2019-04-28T17:19:41.961Z,101597.11
2019-04-28T17:22:11.460Z,101589.00
2019-04-28T17:24:40.967Z,101592.02
2019-04-28T17:27:15.973Z,101598.95
2019-04-28T17:29:47.753Z,101598.46
2019-04-28T17:32:18.309Z,101603.36
2019-04-28T17:34:47.910Z,101602.34
2019-04-28T17:37:17.497Z,101598.20
2019-04-28T17:39:47.062Z,101602.73
2019-04-28T17:42:18.799Z,101600.11
2019-04-28T17:44:48.745Z,101600.34
2019-04-28T17:47:19.841Z,101607.14
2019-04-28T17:49:49.280Z,101604.27
2019-04-28T17:52:19.418Z,101599.77
2019-04-28T17:54:50.550Z,101607.63
2019-04-28T17:57:23.130Z,101608.20
2019-04-28T17:59:54.284Z,101620.03
2019-04-28T18:02:26.424Z,101615.80
2019-04-28T18:05:12.561Z,101620.20
2019-04-28T18:07:45.394Z,101624.14
2019-04-28T18:10:15.772Z,101625.45
2019-04-28T18:12:45.332Z,101630.06
2019-04-28T18:15:20.240Z,101624.99
2019-04-28T18:17:51.372Z,101627.69
2019-04-28T18:20:21.880Z,101637.10
2019-04-28T18:22:51.448Z,101640.23
2019-04-28T18:25:22.509Z,101643.81
2019-04-28T18:27:51.950Z,101649.20
2019-04-28T18:30:23.083Z,101654.08
2019-04-28T18:33:03.559Z,101663.80
2019-04-28T18:35:37.566Z,101663.51
2019-04-28T18:38:14.566Z,101671.55
2019-04-28T18:40:51.661Z,101678.77
2019-04-28T18:43:39.227Z,101681.63
2019-04-28T18:46:08.734Z,101689.18
2019-04-28T18:48:38.245Z,101690.59
2019-04-28T18:51:07.877Z,101696.45
2019-04-28T18:53:37.397Z,101691.37
2019-04-28T18:56:08.321Z,101704.92
2019-04-28T18:58:37.963Z,101702.74
2019-04-28T19:01:18.455Z,101718.43
2019-04-28T19:03:47.895Z,101716.28
2019-04-28T19:06:18.598Z,101714.63
2019-04-28T19:09:21.411Z,101714.72
2019-04-28T19:11:58.258Z,101712.66
2019-04-28T19:14:45.404Z,101726.17
2019-04-28T19:17:16.557Z,101733.34
2019-04-28T19:19:46.081Z,101733.34
2019-04-28T19:22:15.617Z,101732.58
2019-04-28T19:24:45.234Z,101724.02
2019-04-28T19:27:14.683Z,101727.09
2019-04-28T19:29:44.244Z,101736.23
2019-04-28T19:32:13.751Z,101739.88
2019-04-28T19:34:43.253Z,101745.23
2019-04-28T19:37:12.848Z,101747.07
2019-04-28T19:39:42.352Z,101742.83
2019-04-28T19:42:12.203Z,101747.33
2019-04-28T19:44:41.832Z,101751.78
2019-04-28T19:47:11.336Z,101751.00
2019-04-28T19:49:41.389Z,101757.23
2019-04-28T19:52:11.011Z,101757.23
2019-04-28T19:54:42.176Z,101753.80
2019-04-28T19:57:19.133Z,101755.58
2019-04-28T20:00:06.334Z,101759.08
2019-04-28T20:02:39.024Z,101762.16
2019-04-28T20:05:08.676Z,101758.77
2019-04-28T20:07:40.867Z,101763.67
2019-04-28T20:10:09.844Z,101759.86
2019-04-28T20:12:39.532Z,101764.22
2019-04-28T20:15:09.174Z,101761.17
2019-04-28T20:17:38.842Z,101762.10
2019-04-28T20:20:09.294Z,101763.02
2019-04-28T20:22:38.798Z,101765.69
2019-04-28T20:25:08.623Z,101760.06
2019-04-28T20:27:38.275Z,101767.45
2019-04-28T20:30:08.746Z,101774.41
2019-04-28T20:32:47.558Z,101777.42
2019-04-28T20:35:18.846Z,101779.64
2019-04-28T20:37:52.894Z,101787.52
2019-04-28T20:40:30.197Z,101790.61
2019-04-28T20:43:07.517Z,101789.81
2019-04-28T20:45:37.174Z,101777.70
2019-04-28T20:48:06.688Z,101792.55
2019-04-28T20:50:37.778Z,101793.08
2019-04-28T20:53:07.250Z,101791.39
2019-04-28T20:55:36.775Z,101793.19
2019-04-28T20:58:06.882Z,101797.09
2019-04-28T21:00:36.651Z,101795.38
2019-04-28T21:03:06.296Z,101799.28
2019-04-28T21:05:35.792Z,101799.28
2019-04-28T21:08:05.378Z,101801.45
2019-04-28T21:10:38.089Z,101807.13
2019-04-28T21:13:06.419Z,101806.28
2019-04-28T21:15:36.208Z,101808.00
2019-04-28T21:18:05.713Z,101815.39
2019-04-28T21:20:35.158Z,101819.31
2019-04-28T21:23:04.670Z,101816.72
2019-04-28T21:25:34.096Z,101815.83
2019-04-28T21:28:05.122Z,101821.05
2019-04-28T21:30:37.320Z,101816.26
2019-04-28T21:33:06.759Z,101823.20
2019-04-28T21:35:36.182Z,101815.84
2019-04-28T21:38:05.680Z,101819.77
2019-04-28T21:40:35.671Z,101822.42
2019-04-28T21:43:09.885Z,101828.52
2019-04-28T21:45:43.980Z,101826.37
2019-04-28T21:48:16.121Z,101822.48
2019-04-28T21:50:45.534Z,101821.22
2019-04-28T21:53:17.697Z,101823.41
2019-04-28T21:55:47.134Z,101815.59
2019-04-28T21:58:32.317Z,101818.16
2019-04-28T22:00:52.872Z,101816.41
2019-04-28T22:03:24.788Z,101818.59
2019-04-28T22:05:56.726Z,101823.81
2019-04-28T22:08:26.176Z,101827.73
2019-04-28T22:10:55.591Z,101829.91
2019-04-28T22:13:25.603Z,101831.23
2019-04-28T22:15:55.042Z,101828.61
2019-04-28T22:18:24.464Z,101829.94
2019-04-28T22:20:54.585Z,101832.99
2019-04-28T22:23:28.514Z,101836.03
2019-04-28T22:25:57.958Z,101834.73
2019-04-28T22:28:28.637Z,101831.70
2019-04-28T22:30:57.999Z,101832.59
2019-04-28T22:33:27.449Z,101836.48
2019-04-28T22:35:56.874Z,101833.44
2019-04-28T22:38:26.285Z,101834.31
2019-04-28T22:40:56.300Z,101843.84
2019-04-28T22:43:27.686Z,101840.80
2019-04-28T22:45:58.640Z,101849.04
2019-04-28T22:48:28.084Z,101844.27
2019-04-28T22:50:57.512Z,101848.20
2019-04-28T22:53:28.890Z,101848.20
2019-04-28T22:56:07.500Z,101849.95
2019-04-28T22:58:41.861Z,101848.64
2019-04-28T23:01:14.558Z,101849.95
2019-04-28T23:03:45.706Z,101853.41
2019-04-28T23:06:15.282Z,101847.36
2019-04-28T23:08:44.774Z,101855.14
2019-04-28T23:11:14.364Z,101856.00
2019-04-28T23:13:46.853Z,101859.92
2019-04-28T23:16:16.433Z,101867.26
2019-04-28T23:18:46.020Z,101864.25
2019-04-28T23:21:18.247Z,101862.92
2019-04-28T23:23:47.745Z,101871.19
2019-04-28T23:26:17.188Z,101859.91
2019-04-28T23:28:49.313Z,101866.84
2019-04-28T23:31:18.735Z,101872.48
2019-04-28T23:33:48.188Z,101866.41
2019-04-28T23:36:17.623Z,101868.59
2019-04-28T23:38:48.107Z,101870.31
2019-04-28T23:41:37.400Z,101867.28
2019-04-28T23:44:06.989Z,101869.88
2019-04-28T23:46:56.071Z,101871.16
2019-04-28T23:49:27.160Z,101868.15
2019-04-28T23:52:13.418Z,101872.48
2019-04-28T23:54:50.559Z,101865.13
2019-04-28T23:57:20.075Z,101860.78
2019-04-28T23:59:51.107Z,101859.91
